Dades de l'estació automàtica Vilafranca del Penedès - la Granada
Resum diari
23:00 TU| Temperatura mitjana | 16.0 °C | |
|---|---|---|
| Temperatura màxima | 23.4 °C | 11:53 TU |
| Temperatura mínima | 8.5 °C | 4:55 TU |
| Humitat relativa mitjana | 61% | |
| Precipitació acumulada | 0.0 mm | |
| Ratxa màxima del vent (10 m) | 42.5 km/h - 203º | 14:57 TU |
| Irradiació solar global | 25.6 MJ/m2 | |
El tram horari està expressat en Temps Universal (TU). Cal sumar una hora en horari d'hivern i dues en horari d'estiu per passar a l'hora oficial.
Vilafranca del Penedès - la Granada
| Municipi | Vilafranca del Penedès |
|---|---|
| Comarca | Alt Penedès |
| Altitud | 240 m |
| Data alta | 25.12.1999 |
| Estat actual | Operativa |
| Període TU |
TM °C |
TX °C |
TN °C |
HRM % |
PPT mm |
VVM (10 m) km/h |
DVM (10 m) graus |
VVX (10 m) km/h |
RS W/m2 |
|---|---|---|---|---|---|---|---|---|---|
| 00:00 - 00:30 | 10.1 | 10.3 | 9.6 | 91 | 0.0 | 5.0 | 4 | 7.6 | 0 |
| 00:30 - 01:00 | 10.3 | 10.6 | 10.0 | 92 | 0.0 | 5.0 | 359 | 6.8 | 0 |
| 01:00 - 01:30 | 10.2 | 10.4 | 10.1 | 90 | 0.0 | 5.4 | 3 | 7.6 | 0 |
| 01:30 - 02:00 | 10.2 | 10.3 | 10.2 | 90 | 0.0 | 6.1 | 1 | 9.4 | 0 |
| 02:00 - 02:30 | 10.3 | 10.4 | 10.2 | 89 | 0.0 | 5.4 | 10 | 10.1 | 0 |
| 02:30 - 03:00 | 10.2 | 10.3 | 10.0 | 90 | 0.0 | 5.8 | 19 | 10.4 | 0 |
| 03:00 - 03:30 | 9.8 | 10.0 | 9.7 | 90 | 0.0 | 7.2 | 22 | 11.2 | 0 |
| 03:30 - 04:00 | 9.7 | 10.0 | 9.4 | 90 | 0.0 | 6.5 | 13 | 10.4 | 0 |
| 04:00 - 04:30 | 9.3 | 9.5 | 8.8 | 91 | 0.0 | 4.3 | 20 | 7.9 | 0 |
| 04:30 - 05:00 | 9.0 | 9.3 | 8.5 | 92 | 0.0 | 4.7 | 26 | 7.9 | 0 |
| 05:00 - 05:30 | 9.1 | 9.6 | 8.7 | 92 | 0.0 | 5.0 | 24 | 7.9 | 4 |
| 05:30 - 06:00 | 9.7 | 10.3 | 9.2 | 90 | 0.0 | 6.5 | 32 | 9.7 | 53 |
| 06:00 - 06:30 | 11.1 | 11.6 | 10.3 | 87 | 0.0 | 6.1 | 39 | 10.8 | 137 |
| 06:30 - 07:00 | 12.1 | 12.6 | 11.6 | 84 | 0.0 | 8.6 | 30 | 14.0 | 235 |
| 07:00 - 07:30 | 13.3 | 13.8 | 12.8 | 79 | 0.0 | 10.1 | 28 | 14.8 | 329 |
| 07:30 - 08:00 | 15.1 | 16.2 | 13.9 | 73 | 0.0 | 6.8 | 31 | 11.2 | 435 |
| 08:00 - 08:30 | 17.4 | 18.5 | 16.3 | 62 | 0.0 | 2.9 | 93 | 7.2 | 528 |
| 08:30 - 09:00 | 19.4 | 20.0 | 18.7 | 54 | 0.0 | 7.6 | 185 | 18.4 | 614 |
| 09:00 - 09:30 | 20.0 | 20.7 | 19.7 | 52 | 0.0 | 11.5 | 212 | 21.2 | 694 |
| 09:30 - 10:00 | 20.9 | 21.5 | 20.5 | 49 | 0.0 | 14.0 | 218 | 23.8 | 762 |
| 10:00 - 10:30 | 21.8 | 22.3 | 21.5 | 45 | 0.0 | 15.8 | 217 | 25.9 | 820 |
| 10:30 - 11:00 | 22.4 | 23.1 | 21.8 | 44 | 0.0 | 17.3 | 214 | 28.8 | 864 |
| 11:00 - 11:30 | 22.7 | 23.2 | 22.3 | 42 | 0.0 | 20.2 | 214 | 29.5 | 895 |
| 11:30 - 12:00 | 22.9 | 23.4 | 22.4 | 41 | 0.0 | 20.5 | 215 | 34.9 | 908 |
| 12:00 - 12:30 | 23.1 | 23.4 | 22.8 | 42 | 0.0 | 22.3 | 203 | 35.6 | 906 |
| 12:30 - 13:00 | 23.0 | 23.3 | 22.7 | 42 | 0.0 | 23.0 | 195 | 36.7 | 886 |
| 13:00 - 13:30 | 22.8 | 23.3 | 22.2 | 44 | 0.0 | 22.7 | 189 | 38.5 | 852 |
| 13:30 - 14:00 | 22.9 | 23.2 | 22.5 | 39 | 0.0 | 23.4 | 210 | 33.8 | 805 |
| 14:00 - 14:30 | 22.4 | 22.8 | 22.1 | 37 | 0.0 | 25.9 | 216 | 37.4 | 750 |
| 14:30 - 15:00 | 22.1 | 22.3 | 21.8 | 34 | 0.0 | 28.4 | 206 | 42.5 | 676 |
| 15:00 - 15:30 | 21.8 | 22.3 | 21.3 | 34 | 0.0 | 27.0 | 214 | 40.7 | 591 |
| 15:30 - 16:00 | 21.4 | 21.8 | 20.9 | 35 | 0.0 | 26.6 | 216 | 39.2 | 493 |
| 16:00 - 16:30 | 20.9 | 21.3 | 20.7 | 36 | 0.0 | 24.8 | 217 | 36.4 | 400 |
| 16:30 - 17:00 | 20.4 | 20.9 | 20.0 | 38 | 0.0 | 23.8 | 214 | 36.7 | 295 |
| 17:00 - 17:30 | 19.7 | 20.1 | 19.3 | 40 | 0.0 | 22.7 | 208 | 33.5 | 198 |
| 17:30 - 18:00 | 19.0 | 19.3 | 18.5 | 41 | 0.0 | 20.2 | 207 | 29.9 | 102 |
| 18:00 - 18:30 | 17.9 | 18.4 | 17.4 | 43 | 0.0 | 15.1 | 210 | 24.1 | 26 |
| 18:30 - 19:00 | 16.7 | 17.4 | 16.0 | 47 | 0.0 | 13.7 | 189 | 25.2 | 0 |
| 19:00 - 19:30 | 15.6 | 16.0 | 15.1 | 49 | 0.0 | 10.1 | 194 | 16.6 | 0 |
| 19:30 - 20:00 | 14.7 | 15.1 | 14.5 | 51 | 0.0 | 9.0 | 182 | 12.6 | 0 |
| 20:00 - 20:30 | 14.3 | 14.6 | 13.8 | 53 | 0.0 | 10.1 | 183 | 12.6 | 0 |
| 20:30 - 21:00 | 13.9 | 14.3 | 13.5 | 55 | 0.0 | 9.7 | 176 | 12.6 | 0 |
| 21:00 - 21:30 | 13.7 | 13.9 | 13.1 | 55 | 0.0 | 7.6 | 162 | 10.4 | 0 |
| 21:30 - 22:00 | 12.7 | 13.1 | 12.2 | 59 | 0.0 | 6.8 | 176 | 11.9 | 0 |
| 22:00 - 22:30 | 13.0 | 13.7 | 11.8 | 60 | 0.0 | 7.2 | 174 | 10.4 | 0 |
| 22:30 - 23:00 | 12.2 | 12.7 | 11.7 | 64 | 0.0 | 0.7 | 186 | 4.7 | 0 |
| 23:00 - 23:30 | 11.8 | 12.4 | 11.2 | 66 | 0.0 | 1.4 | 159 | 3.6 | 0 |
Les dades en taronja només han passat un control de qualitat automàtic. Resta pendent la seva validació definitiva.